Time;durP1;ratioP1;P1;durP2;ratioP2;P2;SDS_P1;SDS_P2;PMS_P1;PMS_P2;Temp;Humidity;BMP_temperature;BMP_pressure;BME280_temperature;BME280_humidity;BME280_pressure;Samples;Min_cycle;Max_cycle;Signal;HPM_P1;HPM_P2
2023/12/01 00:01:14;;;;;;;40.15;18.48;;;-0.70;99.90;;;;;;5049209;28;20417;-78
2023/12/01 00:03:40;;;;;;;48.05;20.63;;;-0.70;99.90;;;;;;5094200;28;20428;-77
2023/12/01 00:06:06;;;;;;;39.42;19.08;;;-0.70;99.90;;;;;;5074586;28;20036;-78
2023/12/01 00:08:32;;;;;;;42.97;19.27;;;-0.80;99.90;;;;;;5053291;28;20104;-77
2023/12/01 00:10:58;;;;;;;43.28;19.33;;;-0.80;99.90;;;;;;5088843;28;20115;-78
2023/12/01 00:13:23;;;;;;;40.05;20.17;;;-0.70;99.90;;;;;;5041593;28;20040;-78
2023/12/01 00:15:49;;;;;;;41.30;19.52;;;0.00;99.90;;;;;;5067032;28;20044;-76
2023/12/01 00:18:15;;;;;;;42.92;20.55;;;-0.80;99.90;;;;;;5059476;28;20045;-77
2023/12/01 00:20:43;;;;;;;38.85;20.17;;;-0.80;99.90;;;;;;5090874;28;20028;-77
2023/12/01 00:23:08;;;;;;;36.35;18.55;;;-0.50;99.90;;;;;;5059855;28;20056;-78
2023/12/01 00:25:36;;;;;;;37.75;19.33;;;-0.90;99.90;;;;;;5055633;28;20132;-76
2023/12/01 00:28:01;;;;;;;33.05;17.17;;;-0.90;99.90;;;;;;5042619;28;20142;-77
2023/12/01 00:30:29;;;;;;;33.45;17.13;;;-1.00;99.90;;;;;;5060848;28;20048;-77
2023/12/01 00:32:57;;;;;;;34.15;18.50;;;-1.00;99.90;;;;;;5053611;28;20128;-77
2023/12/01 00:35:26;;;;;;;34.90;17.10;;;-1.00;99.90;;;;;;5061682;28;20399;-77
2023/12/01 00:37:52;;;;;;;35.05;18.35;;;-0.80;99.90;;;;;;5039613;28;20045;-77
2023/12/01 00:40:17;;;;;;;33.78;17.35;;;-1.00;99.90;;;;;;5082590;28;20461;-77
2023/12/01 00:42:43;;;;;;;33.70;17.75;;;-0.70;99.90;;;;;;5063294;28;20094;-77
2023/12/01 00:45:09;;;;;;;37.85;19.05;;;-1.10;99.90;;;;;;5077720;28;20483;-78
2023/12/01 00:47:34;;;;;;;39.78;21.27;;;-1.10;99.90;;;;;;5073612;28;20036;-77
2023/12/01 00:50:00;;;;;;;38.22;18.35;;;-1.10;99.90;;;;;;5039155;28;20059;-77
2023/12/01 00:52:26;;;;;;;41.28;18.45;;;-1.10;99.90;;;;;;5056667;28;20047;-77
2023/12/01 00:54:51;;;;;;;40.38;19.45;;;-1.10;99.90;;;;;;5038004;28;20048;-77
2023/12/01 00:57:17;;;;;;;40.78;20.25;;;-1.10;99.90;;;;;;5072422;28;20411;-77
2023/12/01 00:59:43;;;;;;;46.90;20.25;;;-1.10;99.90;;;;;;5073267;28;20480;-76
2023/12/01 01:02:09;;;;;;;40.38;20.10;;;-1.20;99.90;;;;;;5088609;28;20041;-77
2023/12/01 01:04:34;;;;;;;35.65;17.25;;;-1.20;99.90;;;;;;5032592;28;20048;-78
2023/12/01 01:07:00;;;;;;;40.10;19.38;;;-1.00;99.90;;;;;;5076208;28;20076;-76
2023/12/01 01:09:26;;;;;;;41.10;19.50;;;-1.20;99.90;;;;;;5064641;28;20041;-77
2023/12/01 01:11:52;;;;;;;41.33;19.85;;;-1.20;99.90;;;;;;5067433;28;20164;-77
2023/12/01 01:14:17;;;;;;;42.90;20.65;;;-1.30;99.90;;;;;;5074517;28;20429;-78
2023/12/01 01:16:43;;;;;;;46.28;21.15;;;-1.30;99.90;;;;;;5082352;28;20116;-76
2023/12/01 01:19:09;;;;;;;47.97;21.33;;;-1.30;99.90;;;;;;5040370;28;20044;-77
2023/12/01 01:21:34;;;;;;;46.38;20.35;;;-1.30;99.90;;;;;;5055940;28;20032;-77
2023/12/01 01:24:00;;;;;;;48.80;19.73;;;-1.30;99.90;;;;;;5093007;28;20055;-77
2023/12/01 01:26:26;;;;;;;55.60;20.70;;;-1.30;99.90;;;;;;5089885;28;20047;-77
2023/12/01 01:28:51;;;;;;;46.95;20.95;;;-1.40;99.90;;;;;;5049173;28;20047;-77
2023/12/01 01:31:17;;;;;;;47.13;21.00;;;-1.30;99.90;;;;;;5050895;28;20036;-78
2023/12/01 01:33:43;;;;;;;53.97;21.70;;;-1.50;99.90;;;;;;5084666;28;20181;-78
2023/12/01 01:36:09;;;;;;;51.65;20.50;;;-1.50;99.90;;;;;;5073911;28;20036;-77
2023/12/01 01:38:34;;;;;;;50.60;19.77;;;-1.50;99.90;;;;;;5047477;28;20044;-78
2023/12/01 01:41:00;;;;;;;53.28;20.80;;;-1.50;99.90;;;;;;5062799;28;20051;-77
2023/12/01 01:43:26;;;;;;;49.80;21.05;;;-1.50;99.90;;;;;;5065177;28;20040;-77
2023/12/01 01:46:03;;;;;;;43.55;18.75;;;-1.30;99.90;;;;;;5069525;28;20041;-78
2023/12/01 01:48:30;;;;;;;48.45;20.08;;;-1.60;99.90;;;;;;5066364;28;20124;-78
2023/12/01 01:50:56;;;;;;;47.60;19.85;;;-1.00;99.90;;;;;;5063324;28;20047;-77
2023/12/01 01:53:24;;;;;;;46.05;18.38;;;-1.70;99.90;;;;;;5074555;28;20482;-78
2023/12/01 01:55:50;;;;;;;44.72;19.08;;;-1.70;99.90;;;;;;5084158;28;20033;-78
2023/12/01 01:58:17;;;;;;;50.60;19.85;;;-1.70;99.90;;;;;;5057842;28;20080;-77
2023/12/01 02:00:49;;;;;;;51.22;21.60;;;-1.70;99.90;;;;;;5059700;28;20055;-77
2023/12/01 02:03:21;;;;;;;46.78;19.13;;;-1.70;99.90;;;;;;5039806;28;20040;-77
2023/12/01 02:05:47;;;;;;;55.92;21.17;;;-1.70;99.90;;;;;;5044470;28;20063;-77
2023/12/01 02:08:27;;;;;;;53.67;21.83;;;-1.70;99.90;;;;;;5073653;28;20043;-78
2023/12/01 02:10:54;;;;;;;60.05;23.08;;;-1.70;99.90;;;;;;5058018;28;20055;-77
2023/12/01 02:13:21;;;;;;;64.10;22.58;;;-1.70;99.90;;;;;;5060622;28;20157;-77
2023/12/01 02:15:48;;;;;;;57.25;20.80;;;-1.70;99.90;;;;;;5061215;28;20513;-77
2023/12/01 02:18:25;;;;;;;52.65;21.02;;;-1.80;99.90;;;;;;5057736;28;20044;-77
2023/12/01 02:20:52;;;;;;;60.55;23.30;;;-1.80;99.90;;;;;;5042502;28;20123;-76
2023/12/01 02:23:18;;;;;;;62.35;24.40;;;-0.50;99.90;;;;;;5085764;28;20540;-77
2023/12/01 02:25:44;;;;;;;59.30;21.65;;;-1.80;99.90;;;;;;5061064;28;20053;-77
2023/12/01 02:28:09;;;;;;;56.35;21.75;;;-1.80;99.90;;;;;;5075527;28;20486;-77
2023/12/01 02:30:35;;;;;;;61.00;24.15;;;-1.80;99.90;;;;;;5068680;28;20037;-76
2023/12/01 02:33:01;;;;;;;63.97;24.25;;;-1.80;99.90;;;;;;5066861;28;20045;-76
2023/12/01 02:35:29;;;;;;;57.83;21.55;;;-1.80;99.90;;;;;;5078702;28;20048;-77
2023/12/01 02:37:59;;;;;;;64.15;23.30;;;-1.80;99.90;;;;;;5073591;28;20499;-77
2023/12/01 02:40:27;;;;;;;61.03;23.30;;;-1.80;99.90;;;;;;5061428;28;20049;-76
2023/12/01 02:42:53;;;;;;;54.97;21.27;;;-1.80;99.90;;;;;;5068820;28;20024;-76
2023/12/01 02:45:21;;;;;;;58.30;23.58;;;-1.80;99.90;;;;;;5084082;28;20041;-77
2023/12/01 02:47:50;;;;;;;55.00;22.67;;;-1.80;99.90;;;;;;5064558;28;20052;-77
2023/12/01 02:50:19;;;;;;;50.75;21.25;;;-1.80;99.90;;;;;;5074031;28;20040;-77
2023/12/01 02:52:45;;;;;;;59.70;23.55;;;-1.80;99.90;;;;;;5086341;28;20045;-76
2023/12/01 02:55:14;;;;;;;53.17;21.10;;;-1.90;99.90;;;;;;5044348;28;20040;-77
2023/12/01 02:57:42;;;;;;;59.15;21.90;;;-1.90;99.90;;;;;;5072356;28;20067;-76
2023/12/01 03:00:13;;;;;;;53.22;20.70;;;-1.90;99.90;;;;;;5070890;28;20044;-76
2023/12/01 03:02:40;;;;;;;54.70;20.90;;;-2.00;99.90;;;;;;5051960;28;20131;-76
2023/12/01 03:05:06;;;;;;;57.08;22.50;;;-2.00;99.90;;;;;;5051134;28;20049;-76
2023/12/01 03:07:32;;;;;;;50.50;21.20;;;-2.10;99.90;;;;;;5075049;28;20039;-76
2023/12/01 03:09:58;;;;;;;58.90;21.23;;;-2.10;99.90;;;;;;5058355;28;20048;-77
2023/12/01 03:12:23;;;;;;;58.45;21.88;;;-2.10;99.90;;;;;;5078943;28;20584;-77
2023/12/01 03:14:49;;;;;;;53.42;20.65;;;-2.20;99.90;;;;;;5078736;28;20119;-77
2023/12/01 03:17:15;;;;;;;57.13;21.20;;;-2.20;99.90;;;;;;5073803;28;20039;-76
2023/12/01 03:19:40;;;;;;;56.78;21.08;;;-2.30;99.90;;;;;;5067258;28;20077;-76
2023/12/01 03:22:06;;;;;;;53.45;21.65;;;-2.30;99.90;;;;;;5032314;28;20033;-77
2023/12/01 03:24:31;;;;;;;47.33;19.63;;;-2.40;99.90;;;;;;5059222;28;20053;-76
2023/12/01 03:27:00;;;;;;;48.85;20.05;;;-2.40;99.90;;;;;;5085684;28;20041;-76
2023/12/01 03:29:26;;;;;;;49.53;21.48;;;-2.50;99.90;;;;;;5069928;28;20040;-76
2023/12/01 03:31:51;;;;;;;54.95;20.40;;;-2.50;99.90;;;;;;5061805;28;20041;-76
2023/12/01 03:34:17;;;;;;;50.65;19.67;;;-2.50;99.90;;;;;;5080487;28;20055;-77
2023/12/01 03:36:42;;;;;;;51.28;20.60;;;-2.60;99.90;;;;;;5079315;28;20115;-76
2023/12/01 03:39:09;;;;;;;49.55;20.73;;;-2.60;99.90;;;;;;5094598;28;20036;-76
2023/12/01 03:41:35;;;;;;;50.38;19.20;;;-2.60;99.90;;;;;;5046937;28;20075;-76
2023/12/01 03:44:01;;;;;;;53.05;21.33;;;-2.70;99.90;;;;;;5053130;28;20036;-78
2023/12/01 03:46:27;;;;;;;44.75;18.67;;;-2.70;99.90;;;;;;5052084;28;20037;-76
2023/12/01 03:48:52;;;;;;;53.70;20.20;;;-2.70;99.90;;;;;;5082734;28;20067;-76
2023/12/01 03:51:18;;;;;;;50.17;19.63;;;-2.70;99.90;;;;;;5039494;28;20503;-77
2023/12/01 03:53:43;;;;;;;46.88;18.48;;;-2.70;99.90;;;;;;5055704;28;20048;-76
2023/12/01 03:56:12;;;;;;;49.38;18.83;;;-2.70;99.90;;;;;;5061528;28;20037;-76
2023/12/01 03:58:38;;;;;;;51.03;19.33;;;-2.80;99.90;;;;;;5040529;28;20483;-76
2023/12/01 04:01:05;;;;;;;51.53;19.23;;;-2.80;99.90;;;;;;5063235;28;20109;-77
2023/12/01 04:03:31;;;;;;;50.58;18.45;;;-2.80;99.90;;;;;;5085547;28;20045;-76
2023/12/01 04:06:01;;;;;;;44.33;19.20;;;-2.80;99.90;;;;;;5058639;28;20246;-77
2023/12/01 04:08:29;;;;;;;47.70;18.17;;;-2.80;99.90;;;;;;5058517;28;20106;-76
2023/12/01 04:10:55;;;;;;;48.30;17.42;;;-2.90;99.90;;;;;;5066656;28;20052;-76
2023/12/01 04:13:21;;;;;;;40.30;16.75;;;-2.90;99.90;;;;;;5036789;28;20128;-76
2023/12/01 04:15:47;;;;;;;43.35;17.33;;;-2.90;99.90;;;;;;5067402;28;20364;-76
2023/12/01 04:18:16;;;;;;;47.20;18.63;;;-2.90;99.90;;;;;;5056328;28;20048;-75
2023/12/01 04:20:41;;;;;;;43.08;17.23;;;-2.90;99.90;;;;;;5071477;28;20058;-75
2023/12/01 04:23:09;;;;;;;45.75;18.88;;;-2.90;99.90;;;;;;5054829;28;20036;-77
2023/12/01 04:25:46;;;;;;;41.08;17.67;;;-2.90;99.90;;;;;;5089378;28;20124;-76
2023/12/01 04:28:13;;;;;;;44.90;18.83;;;-2.90;99.90;;;;;;5041139;28;20055;-78
2023/12/01 04:30:40;;;;;;;43.08;18.08;;;-2.90;99.90;;;;;;5032641;28;20049;-76
2023/12/01 04:33:06;;;;;;;40.45;17.52;;;-2.90;99.90;;;;;;5089559;28;20079;-77
2023/12/01 04:35:33;;;;;;;44.28;17.13;;;-2.90;99.90;;;;;;5074573;28;20057;-75
2023/12/01 04:38:03;;;;;;;43.95;17.85;;;-3.00;99.90;;;;;;5062455;28;20047;-76
2023/12/01 04:40:30;;;;;;;47.42;18.15;;;-2.30;99.90;;;;;;5049406;28;20065;-76
2023/12/01 04:42:57;;;;;;;44.10;17.42;;;-3.00;99.90;;;;;;5072389;28;20041;-76
2023/12/01 04:45:27;;;;;;;43.60;16.58;;;-3.00;99.90;;;;;;5052291;28;20067;-76
2023/12/01 04:47:54;;;;;;;43.08;17.40;;;-3.00;99.90;;;;;;5056512;28;20537;-75
2023/12/01 04:50:22;;;;;;;45.97;17.30;;;-3.00;99.90;;;;;;5049151;28;20051;-77
2023/12/01 04:52:55;;;;;;;44.63;17.42;;;-3.10;99.90;;;;;;5031224;28;20037;-76
2023/12/01 04:55:26;;;;;;;43.45;17.45;;;-3.10;99.90;;;;;;5048290;28;20044;-76
2023/12/01 04:57:52;;;;;;;49.15;17.98;;;-3.10;99.90;;;;;;5093674;28;20494;-76
2023/12/01 05:00:20;;;;;;;43.00;16.25;;;-3.10;99.90;;;;;;5066566;28;20129;-76
2023/12/01 05:02:55;;;;;;;39.60;16.52;;;-3.10;99.90;;;;;;5053546;28;20383;-76
2023/12/01 05:05:23;;;;;;;40.20;17.80;;;-3.10;99.90;;;;;;5063157;28;20494;-76
2023/12/01 05:07:51;;;;;;;45.60;15.90;;;-3.10;99.90;;;;;;5086589;28;20036;-76
2023/12/01 05:10:22;;;;;;;44.47;17.88;;;-3.10;99.90;;;;;;5051187;28;20051;-75
2023/12/01 05:12:49;;;;;;;41.17;17.52;;;-3.10;99.90;;;;;;5057907;28;20486;-77
2023/12/01 05:15:20;;;;;;;42.80;17.25;;;-3.20;99.90;;;;;;5064754;28;20048;-76
2023/12/01 05:17:48;;;;;;;44.85;17.42;;;-3.10;99.90;;;;;;5093161;28;20044;-76
2023/12/01 05:20:17;;;;;;;39.63;14.95;;;-3.10;99.90;;;;;;5059132;28;20032;-77
2023/12/01 05:22:45;;;;;;;43.97;16.70;;;-2.60;99.90;;;;;;5054311;28;20125;-77
2023/12/01 05:25:16;;;;;;;41.78;16.83;;;-3.20;99.90;;;;;;5061539;28;20060;-77
2023/12/01 05:27:47;;;;;;;42.75;16.48;;;-3.20;99.90;;;;;;5078712;28;20045;-75
2023/12/01 05:30:18;;;;;;;40.25;16.95;;;-3.20;99.90;;;;;;5067567;28;20044;-77
2023/12/01 05:32:48;;;;;;;35.85;14.95;;;-3.20;99.90;;;;;;5072672;28;20032;-76
2023/12/01 05:35:15;;;;;;;36.95;15.75;;;-3.20;99.90;;;;;;5084058;28;20506;-76
2023/12/01 05:37:48;;;;;;;38.33;16.02;;;-3.30;99.90;;;;;;5057642;28;20128;-76
2023/12/01 05:40:22;;;;;;;40.47;16.00;;;-3.30;99.90;;;;;;5056195;28;20239;-77
2023/12/01 05:42:52;;;;;;;41.78;15.88;;;-3.30;99.90;;;;;;5060218;28;20044;-76
2023/12/01 05:45:20;;;;;;;39.58;16.40;;;-3.30;99.90;;;;;;5028389;28;20048;-75
2023/12/01 05:47:46;;;;;;;40.35;16.08;;;-3.30;99.90;;;;;;5093724;28;20132;-75
2023/12/01 05:50:17;;;;;;;43.80;17.20;;;-3.30;99.90;;;;;;5055509;28;20040;-76
2023/12/01 05:52:45;;;;;;;43.85;17.17;;;-3.30;99.90;;;;;;5064278;28;20076;-75
2023/12/01 05:55:17;;;;;;;38.50;15.45;;;-3.40;99.90;;;;;;5062892;28;20048;-76
2023/12/01 05:57:47;;;;;;;43.17;17.67;;;-3.30;99.90;;;;;;5084287;28;20053;-76
2023/12/01 06:00:19;;;;;;;43.70;18.80;;;-3.40;99.90;;;;;;5031543;28;20045;-76
2023/12/01 06:02:46;;;;;;;40.60;17.70;;;-3.40;99.90;;;;;;5063320;28;20097;-76
2023/12/01 06:05:13;;;;;;;43.33;16.00;;;-3.40;99.90;;;;;;5064278;28;20054;-75
2023/12/01 06:07:42;;;;;;;45.42;17.45;;;-3.40;99.90;;;;;;5063049;28;20047;-77
2023/12/01 06:10:09;;;;;;;47.40;19.17;;;-3.40;99.90;;;;;;5055794;28;20057;-77
2023/12/01 06:12:41;;;;;;;37.97;15.35;;;-3.40;99.90;;;;;;5059553;28;20045;-76
2023/12/01 06:15:12;;;;;;;44.42;16.67;;;-3.40;99.90;;;;;;5073085;28;20052;-76
2023/12/01 06:17:39;;;;;;;33.47;14.50;;;-3.50;99.90;;;;;;5053125;28;20036;-76
2023/12/01 06:20:16;;;;;;;38.88;15.80;;;-3.50;99.90;;;;;;5050005;28;20076;-77
2023/12/01 06:22:59;;;;;;;35.35;14.85;;;-3.50;99.90;;;;;;5058269;28;20029;-77
2023/12/01 06:25:31;;;;;;;31.67;14.00;;;-3.50;99.90;;;;;;5073583;28;20047;-76
2023/12/01 06:28:01;;;;;;;32.72;14.27;;;-3.50;99.90;;;;;;5053760;28;20052;-76
2023/12/01 06:30:34;;;;;;;35.58;15.00;;;-2.30;99.90;;;;;;5070262;28;20095;-76
2023/12/01 06:33:01;;;;;;;34.72;15.82;;;-3.50;99.90;;;;;;5059443;28;20040;-76
2023/12/01 06:35:27;;;;;;;32.65;14.05;;;-1.90;99.90;;;;;;5062204;28;20068;-76
2023/12/01 06:37:54;;;;;;;34.42;15.18;;;-3.50;99.90;;;;;;5068065;28;20067;-76
2023/12/01 06:40:20;;;;;;;34.08;15.25;;;-3.50;99.90;;;;;;5071719;28;20037;-76
2023/12/01 06:42:50;;;;;;;32.15;13.68;;;-3.50;99.90;;;;;;5058940;28;20078;-75
2023/12/01 06:45:19;;;;;;;32.83;15.00;;;-3.50;99.90;;;;;;5091627;28;20033;-76
2023/12/01 06:47:51;;;;;;;30.40;14.18;;;-3.60;99.90;;;;;;5061563;28;20039;-76
2023/12/01 06:50:22;;;;;;;31.50;14.65;;;-3.60;99.90;;;;;;5073539;28;20041;-76
2023/12/01 06:52:49;;;;;;;33.25;14.43;;;-3.60;99.90;;;;;;5068357;28;20045;-75
2023/12/01 06:55:15;;;;;;;33.47;14.77;;;-3.50;99.90;;;;;;5080972;28;20181;-74
2023/12/01 06:57:46;;;;;;;31.90;14.07;;;-3.60;99.90;;;;;;5082288;28;20707;-76
2023/12/01 07:00:29;;;;;;;32.55;14.70;;;-3.60;99.90;;;;;;5063928;28;20494;-75
2023/12/01 07:02:59;;;;;;;30.33;14.48;;;-3.60;99.90;;;;;;5079961;28;20066;-75
2023/12/01 07:05:29;;;;;;;34.53;14.95;;;-3.60;99.90;;;;;;5091852;28;20053;-76
2023/12/01 07:08:00;;;;;;;30.73;13.43;;;-3.60;99.90;;;;;;5070344;28;20075;-75
2023/12/01 07:10:26;;;;;;;31.08;13.38;;;-3.60;99.90;;;;;;5040635;28;20037;-76
2023/12/01 07:12:54;;;;;;;35.17;14.68;;;-3.60;99.90;;;;;;5047856;28;20048;-76
2023/12/01 07:15:20;;;;;;;32.92;14.90;;;-3.60;99.90;;;;;;5050950;28;20044;-75
2023/12/01 07:17:55;;;;;;;34.72;14.68;;;-3.60;99.90;;;;;;5044639;28;20040;-76
2023/12/01 07:20:26;;;;;;;35.85;14.77;;;-3.60;99.90;;;;;;5085530;28;20041;-75
2023/12/01 07:22:53;;;;;;;30.73;14.82;;;-3.60;99.90;;;;;;5087045;28;20040;-75
2023/12/01 07:25:23;;;;;;;30.92;14.85;;;-3.50;99.90;;;;;;5060206;28;20044;-76
2023/12/01 07:27:54;;;;;;;34.00;15.02;;;-3.60;99.90;;;;;;5048356;28;20044;-75
2023/12/01 07:30:20;;;;;;;33.90;14.43;;;-3.60;99.90;;;;;;5063340;28;20074;-76
2023/12/01 07:32:46;;;;;;;30.20;12.70;;;-3.50;99.90;;;;;;5069757;28;20040;-76
2023/12/01 07:35:14;;;;;;;32.60;14.63;;;-3.50;99.90;;;;;;5085181;28;20499;-76
2023/12/01 07:37:42;;;;;;;28.15;13.10;;;-3.50;99.90;;;;;;5081797;28;20045;-75
2023/12/01 07:40:11;;;;;;;35.25;15.30;;;-3.20;99.90;;;;;;5088741;28;20044;-76
2023/12/01 07:42:37;;;;;;;39.28;14.57;;;-3.50;99.90;;;;;;5075538;28;20050;-77
2023/12/01 07:45:04;;;;;;;40.55;16.85;;;-3.50;99.90;;;;;;5034037;28;20036;-75
2023/12/01 07:47:33;;;;;;;47.80;17.38;;;-3.50;99.90;;;;;;5084208;28;20048;-76
2023/12/01 07:49:59;;;;;;;51.60;19.40;;;-3.50;99.90;;;;;;5079629;28;20482;-75
2023/12/01 07:52:27;;;;;;;41.92;16.90;;;-3.50;99.90;;;;;;5064288;28;20080;-76
2023/12/01 07:54:55;;;;;;;43.65;16.83;;;-3.60;99.90;;;;;;5076545;28;20098;-77
2023/12/01 07:57:21;;;;;;;44.75;17.02;;;-3.60;99.90;;;;;;5042035;28;20052;-76
2023/12/01 07:59:50;;;;;;;50.33;17.83;;;-3.60;99.90;;;;;;5092222;28;20036;-75
2023/12/01 08:02:17;;;;;;;45.08;18.45;;;-3.60;99.90;;;;;;5068555;28;20051;-76
2023/12/01 08:04:42;;;;;;;52.25;20.42;;;-3.60;99.90;;;;;;5039551;28;20048;-76
2023/12/01 08:07:08;;;;;;;44.70;18.58;;;-3.60;99.90;;;;;;5089180;28;20048;-77
2023/12/01 08:09:34;;;;;;;45.58;19.23;;;-3.60;99.90;;;;;;5079376;28;20415;-76
2023/12/01 08:12:01;;;;;;;50.63;18.83;;;-3.50;99.90;;;;;;5059087;28;20391;-76
2023/12/01 08:14:27;;;;;;;50.75;19.98;;;-3.50;99.90;;;;;;5070037;28;20041;-76
2023/12/01 08:16:53;;;;;;;45.00;18.58;;;-3.50;99.90;;;;;;5070060;28;20085;-76
2023/12/01 08:19:19;;;;;;;51.13;19.20;;;-3.40;99.90;;;;;;5046240;28;20063;-75
2023/12/01 08:21:45;;;;;;;41.67;18.08;;;-3.40;99.90;;;;;;5088058;28;20048;-77
2023/12/01 08:24:11;;;;;;;50.95;18.70;;;-3.30;99.90;;;;;;5041157;28;20044;-76
2023/12/01 08:26:37;;;;;;;47.05;18.23;;;-3.30;99.90;;;;;;5071307;28;20379;-76
2023/12/01 08:29:03;;;;;;;43.92;17.50;;;-3.20;99.90;;;;;;5104781;28;20164;-76
2023/12/01 08:31:30;;;;;;;43.28;17.25;;;-3.20;99.90;;;;;;5040582;28;20359;-76
2023/12/01 08:33:56;;;;;;;38.50;17.40;;;-3.10;99.90;;;;;;5055521;28;20044;-76
2023/12/01 08:36:22;;;;;;;41.35;17.23;;;-3.10;99.90;;;;;;5061967;28;20542;-75
2023/12/01 08:38:52;;;;;;;41.35;17.75;;;-3.00;99.90;;;;;;5088694;28;20125;-75
2023/12/01 08:41:18;;;;;;;42.42;18.13;;;-3.00;99.90;;;;;;5070651;28;20103;-76
2023/12/01 08:43:44;;;;;;;41.17;17.88;;;-2.90;99.90;;;;;;5073765;28;20483;-76
2023/12/01 08:46:12;;;;;;;44.58;18.52;;;-2.80;99.90;;;;;;5064962;28;20083;-76
2023/12/01 08:48:38;;;;;;;39.10;17.83;;;-2.70;99.90;;;;;;5040848;28;20051;-76
2023/12/01 08:51:05;;;;;;;43.58;18.38;;;-2.60;99.90;;;;;;5056840;28;20080;-77
2023/12/01 08:53:31;;;;;;;42.75;19.58;;;-2.60;99.90;;;;;;5039095;28;20151;-77
2023/12/01 08:55:59;;;;;;;39.63;17.75;;;-2.50;99.90;;;;;;5084099;28;20056;-76
2023/12/01 08:58:25;;;;;;;35.17;17.05;;;-2.40;99.90;;;;;;5030762;28;20057;-77
2023/12/01 09:00:51;;;;;;;37.00;17.00;;;-2.40;99.90;;;;;;5027328;28;20453;-77
2023/12/01 09:03:22;;;;;;;38.72;18.83;;;-2.30;99.90;;;;;;5032761;28;20069;-77
2023/12/01 09:05:48;;;;;;;;;;;-2.20;99.90;;;;;;5030208;28;20052;-77
2023/12/01 09:08:17;;;;;;;38.65;16.48;;;-2.10;99.90;;;;;;5011546;28;19921;-75
2023/12/01 09:10:42;;;;;;;38.33;17.83;;;-2.00;99.90;;;;;;5060403;28;20080;-77
2023/12/01 09:13:08;;;;;;;34.80;16.63;;;-1.90;99.90;;;;;;5022554;28;20041;-77
2023/12/01 09:15:35;;;;;;;34.83;17.20;;;-1.70;99.90;;;;;;5011231;28;20045;-77
2023/12/01 09:18:01;;;;;;;35.40;18.35;;;-1.50;99.90;;;;;;5046192;28;20046;-78
2023/12/01 09:20:27;;;;;;;36.63;18.35;;;-1.40;99.90;;;;;;5024907;28;20046;-78
2023/12/01 09:22:56;;;;;;;32.80;17.70;;;-1.20;99.90;;;;;;5032562;28;20514;-78
2023/12/01 09:25:22;;;;;;;34.53;18.13;;;-1.10;99.90;;;;;;5032165;28;20098;-77
2023/12/01 09:27:48;;;;;;;29.70;16.05;;;-0.90;99.90;;;;;;5015956;28;20068;-77
2023/12/01 09:30:16;;;;;;;28.90;17.45;;;-0.80;99.90;;;;;;5015436;28;20041;-77
2023/12/01 09:32:45;;;;;;;28.95;16.48;;;-0.60;99.90;;;;;;5066487;28;20044;-76
2023/12/01 09:35:11;;;;;;;28.63;15.52;;;-0.40;99.90;;;;;;5033044;28;20045;-77
2023/12/01 09:37:37;;;;;;;28.77;15.95;;;-0.30;99.90;;;;;;5013217;28;20045;-78
2023/12/01 09:40:03;;;;;;;31.38;18.05;;;-0.30;99.90;;;;;;5025151;28;20046;-77
2023/12/01 09:42:33;;;;;;;31.15;17.33;;;-0.40;99.90;;;;;;5062694;28;20459;-78
2023/12/01 09:45:00;;;;;;;31.40;17.40;;;-0.50;99.90;;;;;;5033012;28;20049;-78
2023/12/01 09:47:29;;;;;;;29.35;15.95;;;-0.60;99.90;;;;;;5019769;28;20404;-77
2023/12/01 09:49:55;;;;;;;28.50;16.63;;;-0.50;99.90;;;;;;5035842;28;20053;-77
2023/12/01 09:52:21;;;;;;;28.63;17.80;;;-0.50;99.90;;;;;;5036346;28;20046;-78
2023/12/01 09:54:47;;;;;;;33.33;17.50;;;-0.50;99.90;;;;;;5035352;28;20073;-78
2023/12/01 09:57:16;;;;;;;33.10;18.83;;;-0.40;99.90;;;;;;5041595;28;20128;-77
2023/12/01 09:59:45;;;;;;;31.73;17.27;;;-0.40;99.90;;;;;;5048227;28;20062;-76
2023/12/01 10:02:10;;;;;;;31.17;17.73;;;1.10;99.90;;;;;;5059288;28;20048;-77
2023/12/01 10:04:36;;;;;;;30.58;16.90;;;-0.60;99.90;;;;;;5070259;28;20191;-78
2023/12/01 10:07:03;;;;;;;28.85;16.80;;;-0.80;99.90;;;;;;5030802;28;20055;-77
2023/12/01 10:09:33;;;;;;;31.52;17.38;;;-0.90;99.90;;;;;;5027925;28;20045;-77
2023/12/01 10:12:07;;;;;;;34.20;17.42;;;0.10;99.90;;;;;;5057386;28;20053;-77
2023/12/01 10:14:35;;;;;;;31.27;16.65;;;-1.70;99.90;;;;;;5039111;28;20049;-77
2023/12/01 10:17:03;;;;;;;30.67;16.52;;;-1.20;99.90;;;;;;5022581;28;20116;-77
2023/12/01 10:19:42;;;;;;;33.92;17.45;;;-1.20;99.90;;;;;;5037637;28;20115;-77
2023/12/01 10:22:09;;;;;;;32.60;17.45;;;-1.20;99.90;;;;;;5038896;28;20518;-77
2023/12/01 10:24:35;;;;;;;31.25;16.42;;;-1.30;99.90;;;;;;5038228;28;20099;-77
2023/12/01 10:27:04;;;;;;;31.70;17.23;;;-1.40;99.90;;;;;;5063256;28;20040;-76
2023/12/01 10:29:32;;;;;;;32.42;16.60;;;-1.40;99.90;;;;;;5075497;28;20064;-77
2023/12/01 10:32:03;;;;;;;32.17;16.55;;;-1.40;99.90;;;;;;5070426;28;20056;-77
2023/12/01 10:34:29;;;;;;;32.67;16.10;;;-1.50;99.90;;;;;;5041247;28;20083;-77
2023/12/01 10:36:55;;;;;;;31.55;17.08;;;-1.50;99.90;;;;;;5059213;28;20067;-76
2023/12/01 10:39:29;;;;;;;32.15;17.33;;;-1.50;99.90;;;;;;5049010;28;20051;-77
2023/12/01 10:41:58;;;;;;;30.35;15.48;;;-1.50;99.90;;;;;;5077664;28;20041;-78
2023/12/01 10:44:28;;;;;;;25.98;14.77;;;-1.50;99.90;;;;;;5060124;28;20056;-77
2023/12/01 10:46:58;;;;;;;30.92;16.23;;;-1.50;99.90;;;;;;5020715;28;20045;-76
2023/12/01 10:49:26;;;;;;;32.38;16.33;;;-0.80;99.90;;;;;;5072880;28;20422;-76
2023/12/01 10:51:55;;;;;;;33.22;17.30;;;-1.50;99.90;;;;;;5072916;28;20040;-76
2023/12/01 10:54:23;;;;;;;33.95;17.70;;;-1.50;99.90;;;;;;5044235;28;20067;-76
2023/12/01 10:57:02;;;;;;;32.47;17.95;;;-1.20;99.90;;;;;;5056987;28;20075;-77
2023/12/01 10:59:28;;;;;;;33.22;16.38;;;-1.40;99.90;;;;;;5036810;28;20056;-76
2023/12/01 11:01:58;;;;;;;33.10;16.20;;;-1.40;99.90;;;;;;5061395;28;20131;-76
2023/12/01 11:04:27;;;;;;;34.33;16.85;;;-1.40;99.90;;;;;;5077370;28;20046;-76
2023/12/01 11:06:58;;;;;;;30.52;16.05;;;-1.40;99.90;;;;;;5069084;28;20076;-76
2023/12/01 11:09:53;;;;;;;29.58;16.35;;;-1.30;99.90;;;;;;5072831;28;20040;-76
2023/12/01 11:12:46;;;;;;;34.28;16.35;;;0.30;99.90;;;;;;5056634;28;20079;-75
2023/12/01 11:15:19;;;;;;;33.47;16.67;;;-1.30;99.90;;;;;;5092515;28;20045;-76
2023/12/01 11:17:46;;;;;;;29.77;16.50;;;-1.20;99.90;;;;;;5051288;28;20061;-77
2023/12/01 11:20:30;;;;;;;33.40;15.48;;;-1.10;99.90;;;;;;5085187;28;20052;-75
2023/12/01 11:23:07;;;;;;;32.72;16.98;;;-1.00;99.90;;;;;;5088145;28;20055;-75
2023/12/01 11:25:41;;;;;;;32.13;16.13;;;-1.00;99.90;;;;;;5078362;28;20545;-76
2023/12/01 11:31:09;;;;;;;32.38;16.85;;;-1.00;99.90;;;;;;5078192;28;20083;-76
2023/12/01 11:33:57;;;;;;;28.65;15.10;;;-1.00;99.90;;;;;;5056546;28;20052;-76
2023/12/01 11:36:23;;;;;;;34.65;16.27;;;-1.00;99.90;;;;;;5063183;28;20048;-76
2023/12/01 11:39:27;;;;;;;31.83;17.05;;;-1.00;99.90;;;;;;5082218;28;20036;-76
2023/12/01 11:42:02;;;;;;;31.08;17.00;;;-0.90;99.90;;;;;;5074851;28;20080;-76
2023/12/01 11:44:37;;;;;;;32.20;16.70;;;-0.80;99.90;;;;;;5076907;28;20103;-75
2023/12/01 11:47:04;;;;;;;30.55;16.13;;;-0.80;99.90;;;;;;5053635;28;20045;-76
2023/12/01 11:49:44;;;;;;;32.78;15.93;;;-0.80;99.90;;;;;;5058275;28;20121;-76
2023/12/01 11:52:15;;;;;;;33.72;17.00;;;-0.70;99.90;;;;;;5033871;28;20415;-77
2023/12/01 11:54:41;;;;;;;29.73;16.05;;;-0.80;99.90;;;;;;5061152;28;20494;-76
2023/12/01 11:57:14;;;;;;;31.00;17.10;;;-0.50;99.90;;;;;;5039435;28;20514;-76
2023/12/01 11:59:39;;;;;;;36.75;18.13;;;-0.70;99.90;;;;;;5056103;28;20051;-78
2023/12/01 12:02:05;;;;;;;32.58;17.45;;;-0.80;99.90;;;;;;5070204;28;20135;-76
2023/12/01 12:04:32;;;;;;;35.60;17.10;;;-0.80;99.90;;;;;;5039125;28;20040;-76
2023/12/01 12:07:01;;;;;;;31.88;16.67;;;-0.80;99.90;;;;;;5039455;28;20041;-77
2023/12/01 12:09:30;;;;;;;32.33;16.63;;;-0.90;99.90;;;;;;5046877;28;20076;-76
2023/12/01 12:11:57;;;;;;;32.10;16.65;;;-0.90;99.90;;;;;;5055004;28;20051;-75
2023/12/01 12:14:24;;;;;;;34.58;17.92;;;-0.90;99.90;;;;;;5047445;28;20048;-77
2023/12/01 12:16:51;;;;;;;33.30;16.35;;;-0.90;99.90;;;;;;5039057;28;20459;-76
2023/12/01 12:19:18;;;;;;;34.90;17.75;;;-0.90;99.90;;;;;;5035395;28;20517;-77
2023/12/01 12:21:44;;;;;;;32.58;16.98;;;-0.90;99.90;;;;;;5056713;28;20047;-76
2023/12/01 12:24:11;;;;;;;31.38;16.80;;;-0.90;99.90;;;;;;5053018;28;20037;-77
2023/12/01 12:26:38;;;;;;;31.50;16.92;;;-0.80;99.90;;;;;;5053087;28;20132;-76
2023/12/01 12:29:06;;;;;;;33.88;17.88;;;-1.00;99.90;;;;;;5075492;28;20809;-76
2023/12/01 12:31:35;;;;;;;35.13;19.48;;;-1.00;99.90;;;;;;5071766;28;20032;-76
2023/12/01 12:34:03;;;;;;;33.42;17.77;;;-0.90;99.90;;;;;;5072522;28;20094;-75
2023/12/01 12:36:30;;;;;;;35.35;16.58;;;-0.90;99.90;;;;;;5055579;28;20110;-76